Time;durP1;ratioP1;P1;durP2;ratioP2;P2;SDS_P1;SDS_P2;PMS_P1;PMS_P2;Temp;Humidity;BMP_temperature;BMP_pressure;BME280_temperature;BME280_humidity;BME280_pressure;Samples;Min_cycle;Max_cycle;Signal;HPM_P1;HPM_P2
2023/04/06 00:01:53;;;;;;;1999.90;999.90;;;-1.40;77.80;;;;;;5034054;28;20026;-71
2023/04/06 00:04:19;;;;;;;1999.90;999.90;;;-1.40;77.60;;;;;;5035178;28;20472;-72
2023/04/06 00:06:44;;;;;;;1999.90;999.90;;;-1.50;77.40;;;;;;5034880;28;20642;-71
2023/04/06 00:09:10;;;;;;;1999.90;999.90;;;-1.60;76.90;;;;;;5035718;28;20040;-72
2023/04/06 00:11:36;;;;;;;1999.90;999.90;;;-1.60;76.80;;;;;;5033346;28;20033;-72
2023/04/06 00:14:01;;;;;;;1999.90;999.90;;;-1.70;77.10;;;;;;5035227;28;20712;-71
2023/04/06 00:16:27;;;;;;;1999.90;999.90;;;-1.70;77.00;;;;;;5032462;28;20092;-71
2023/04/06 00:18:53;;;;;;;1999.90;999.90;;;-1.80;77.70;;;;;;5036280;28;20060;-72
2023/04/06 00:21:18;;;;;;;1999.90;999.90;;;-1.80;78.80;;;;;;5032129;28;20037;-72
2023/04/06 00:23:44;;;;;;;1999.90;999.90;;;-1.90;79.80;;;;;;5032889;28;20032;-71
2023/04/06 00:26:10;;;;;;;1999.90;999.90;;;-1.90;80.70;;;;;;5032706;28;20033;-71
2023/04/06 00:28:37;;;;;;;1999.90;999.90;;;-1.90;81.20;;;;;;5032811;28;20030;-71
2023/04/06 00:31:03;;;;;;;1999.90;999.90;;;-2.00;81.10;;;;;;5034531;28;20507;-72
2023/04/06 00:33:28;;;;;;;1999.90;999.90;;;-2.00;81.00;;;;;;5035055;28;20113;-72
2023/04/06 00:35:54;;;;;;;1999.90;999.90;;;-2.00;80.40;;;;;;5032865;28;20064;-71
2023/04/06 00:38:20;;;;;;;1999.90;999.90;;;-2.00;80.40;;;;;;5035295;28;20506;-71
2023/04/06 00:40:46;;;;;;;1999.90;999.90;;;-1.90;79.80;;;;;;5035041;28;20056;-71
2023/04/06 00:43:13;;;;;;;1999.90;999.90;;;-1.90;79.70;;;;;;5035639;28;20134;-71
2023/04/06 00:45:41;;;;;;;1999.90;999.90;;;-1.90;79.90;;;;;;5031643;28;20029;-72
2023/04/06 00:48:08;;;;;;;1999.90;999.90;;;-2.00;80.00;;;;;;5033136;28;20117;-72
2023/04/06 00:50:34;;;;;;;1999.90;999.90;;;-2.00;80.40;;;;;;5033944;28;20057;-70
2023/04/06 00:53:00;;;;;;;1999.90;999.90;;;-2.00;80.60;;;;;;5033609;28;20051;-71
2023/04/06 00:55:27;;;;;;;1999.90;999.90;;;-2.20;80.80;;;;;;5030710;28;20032;-72
2023/04/06 00:57:53;;;;;;;1999.90;999.90;;;-2.20;81.40;;;;;;5037782;28;20052;-72
2023/04/06 01:00:19;;;;;;;1999.90;999.90;;;-2.20;80.40;;;;;;5036308;28;20037;-70
2023/04/06 01:02:46;;;;;;;1999.90;999.90;;;-2.20;79.60;;;;;;5034035;28;20071;-71
2023/04/06 01:05:12;;;;;;;1999.90;999.90;;;-2.20;79.40;;;;;;5037214;28;20033;-71
2023/04/06 01:07:37;;;;;;;1999.90;999.90;;;-2.30;80.30;;;;;;5032648;28;20033;-71
2023/04/06 01:10:04;;;;;;;1999.90;999.90;;;-2.30;80.40;;;;;;5032464;28;20036;-71
2023/04/06 01:12:30;;;;;;;1999.90;999.90;;;-2.30;80.90;;;;;;5011997;28;20026;-71
2023/04/06 01:14:56;;;;;;;1999.90;999.90;;;-2.40;81.70;;;;;;5034546;28;20328;-71
2023/04/06 01:17:22;;;;;;;1999.90;999.90;;;-2.40;82.20;;;;;;5035217;28;20144;-71
2023/04/06 01:19:49;;;;;;;1999.90;999.90;;;-2.40;81.80;;;;;;5034094;28;20037;-70
2023/04/06 01:22:18;;;;;;;1999.90;999.90;;;-2.50;81.30;;;;;;5034611;28;20035;-71
2023/04/06 01:24:44;;;;;;;1999.90;999.90;;;-2.50;82.10;;;;;;5035616;28;20025;-70
2023/04/06 01:27:11;;;;;;;1999.90;999.90;;;-2.60;81.30;;;;;;5042395;28;20029;-70
2023/04/06 01:29:37;;;;;;;1999.90;999.90;;;-2.60;80.60;;;;;;5038997;28;20064;-70
2023/04/06 01:32:03;;;;;;;1999.90;999.90;;;-2.60;81.10;;;;;;5041781;28;20033;-70
2023/04/06 01:34:28;;;;;;;1999.90;999.90;;;-2.60;80.10;;;;;;5034235;28;20439;-70
2023/04/06 01:36:55;;;;;;;1999.90;999.90;;;-2.50;80.00;;;;;;5034330;28;20040;-70
2023/04/06 01:39:20;;;;;;;1999.90;999.90;;;-2.50;81.00;;;;;;5035731;28;20029;-71
2023/04/06 01:41:49;;;;;;;1999.90;999.90;;;-2.60;80.80;;;;;;5031518;28;20487;-71
2023/04/06 01:44:20;;;;;;;1999.90;999.90;;;-2.60;80.50;;;;;;5032630;28;20483;-71
2023/04/06 01:46:46;;;;;;;1999.90;999.90;;;-2.60;80.40;;;;;;5030498;28;20068;-71
2023/04/06 01:49:12;;;;;;;1999.90;999.90;;;-2.50;81.50;;;;;;5033294;28;20577;-71
2023/04/06 01:51:38;;;;;;;1999.90;999.90;;;-2.40;81.10;;;;;;5032773;28;20140;-70
2023/04/06 01:54:04;;;;;;;1999.90;999.90;;;-2.50;80.50;;;;;;5032623;28;20124;-70
2023/04/06 01:56:30;;;;;;;1999.90;999.90;;;-2.50;80.10;;;;;;5031593;28;20084;-70
2023/04/06 01:58:56;;;;;;;1999.90;999.90;;;-2.50;79.80;;;;;;5034045;28;20472;-70
2023/04/06 02:01:22;;;;;;;1999.90;999.90;;;-2.60;80.80;;;;;;5039321;28;20503;-70
2023/04/06 02:03:47;;;;;;;1999.90;999.90;;;-2.60;81.10;;;;;;5031830;28;20037;-71
2023/04/06 02:06:13;;;;;;;1999.90;999.90;;;-2.60;80.90;;;;;;5033930;28;20041;-72
2023/04/06 02:08:39;;;;;;;1999.90;999.90;;;-2.50;80.80;;;;;;5033113;28;20103;-71
2023/04/06 02:11:05;;;;;;;1999.90;999.90;;;-2.50;80.50;;;;;;5034946;28;20152;-72
2023/04/06 02:13:30;;;;;;;1999.90;999.90;;;-2.50;81.30;;;;;;5029838;28;20470;-70
2023/04/06 02:15:57;;;;;;;1999.90;999.90;;;-2.50;81.30;;;;;;5035555;28;20046;-72
2023/04/06 02:18:22;;;;;;;1999.90;999.90;;;-2.60;81.20;;;;;;5029574;28;20036;-71
2023/04/06 02:20:48;;;;;;;1999.90;999.90;;;-2.60;81.20;;;;;;5030784;28;20037;-70
2023/04/06 02:23:14;;;;;;;1999.90;999.90;;;-2.60;81.20;;;;;;5033745;28;20044;-71
2023/04/06 02:25:40;;;;;;;1999.90;999.90;;;-2.60;81.50;;;;;;5034514;28;20037;-70
2023/04/06 02:28:06;;;;;;;1999.90;999.90;;;-2.70;81.70;;;;;;5029380;28;20490;-72
2023/04/06 02:30:32;;;;;;;1999.90;999.90;;;-2.70;83.20;;;;;;5026815;28;20033;-72
2023/04/06 02:33:00;;;;;;;1999.90;999.90;;;-2.70;82.70;;;;;;5027735;28;20037;-72
2023/04/06 02:35:27;;;;;;;1999.90;999.90;;;-2.70;83.30;;;;;;5033112;28;20121;-72
2023/04/06 02:37:53;;;;;;;1999.90;999.90;;;-2.70;83.70;;;;;;5031210;28;20076;-71
2023/04/06 02:40:19;;;;;;;1999.90;999.90;;;-2.70;83.20;;;;;;5021551;28;20041;-70
2023/04/06 02:42:45;;;;;;;1999.90;999.90;;;-2.60;82.70;;;;;;5030452;28;20033;-71
2023/04/06 02:45:10;;;;;;;1999.90;999.90;;;-2.50;82.50;;;;;;5036812;28;20022;-71
2023/04/06 02:47:37;;;;;;;1999.90;999.90;;;-2.50;82.00;;;;;;5015109;28;20041;-71
2023/04/06 02:50:03;;;;;;;1999.90;999.90;;;-2.50;81.70;;;;;;5037850;28;20040;-72
2023/04/06 02:52:29;;;;;;;1999.90;999.90;;;-2.50;81.30;;;;;;5048238;28;20109;-70
2023/04/06 02:54:55;;;;;;;1999.90;999.90;;;-2.50;81.80;;;;;;5038151;28;20072;-75
2023/04/06 02:57:20;;;;;;;1999.90;999.90;;;-2.40;81.50;;;;;;5039103;28;20033;-71
2023/04/06 02:59:46;;;;;;;1999.90;999.90;;;-2.40;81.30;;;;;;5053608;28;20037;-72
2023/04/06 03:02:12;;;;;;;1999.90;999.90;;;-2.30;81.60;;;;;;5038936;28;20144;-70
2023/04/06 03:04:38;;;;;;;1999.90;999.90;;;-2.30;81.70;;;;;;5038631;28;20590;-72
2023/04/06 03:07:03;;;;;;;1999.90;999.90;;;-2.30;82.10;;;;;;5040850;28;20413;-72
2023/04/06 03:09:29;;;;;;;1999.90;999.90;;;-2.40;82.10;;;;;;5042451;28;20090;-72
2023/04/06 03:11:55;;;;;;;1999.90;999.90;;;-2.40;82.80;;;;;;5041265;28;20479;-73
2023/04/06 03:14:21;;;;;;;1999.90;999.90;;;-2.40;82.90;;;;;;5043118;28;20048;-72
2023/04/06 03:16:48;;;;;;;1999.90;999.90;;;-2.40;82.40;;;;;;5032817;28;20147;-71
2023/04/06 03:19:14;;;;;;;1999.90;999.90;;;-2.40;82.00;;;;;;5035699;28;20037;-71
2023/04/06 03:21:39;;;;;;;1999.90;999.90;;;-2.40;81.50;;;;;;5050426;28;20037;-71
2023/04/06 03:24:06;;;;;;;1999.90;999.90;;;-2.30;80.90;;;;;;5034412;28;20026;-71
2023/04/06 03:26:31;;;;;;;1999.90;999.90;;;-2.30;80.50;;;;;;5045802;28;20369;-71
2023/04/06 03:28:57;;;;;;;1999.90;999.90;;;-2.20;80.40;;;;;;5049639;28;20263;-70
2023/04/06 03:31:22;;;;;;;1999.90;999.90;;;-2.20;80.10;;;;;;5034921;28;20512;-71
2023/04/06 03:33:48;;;;;;;1999.90;999.90;;;-2.20;80.80;;;;;;5034419;28;20041;-71
2023/04/06 03:36:14;;;;;;;1999.90;999.90;;;-2.10;81.00;;;;;;5030679;28;20094;-71
2023/04/06 03:38:40;;;;;;;1999.90;999.90;;;-2.20;81.00;;;;;;5035707;28;20030;-71
2023/04/06 03:41:06;;;;;;;1999.90;999.90;;;-2.20;80.80;;;;;;5035531;28;20475;-71
2023/04/06 03:43:31;;;;;;;1999.90;999.90;;;-2.30;81.40;;;;;;5035834;28;20033;-71
2023/04/06 03:45:57;;;;;;;1999.90;999.90;;;-2.50;81.60;;;;;;5034292;28;20030;-71
2023/04/06 03:48:23;;;;;;;1999.90;999.90;;;-2.60;82.00;;;;;;5035264;28;20525;-71
2023/04/06 03:50:48;;;;;;;1999.90;999.90;;;-2.70;82.20;;;;;;5032494;28;20040;-70
2023/04/06 03:53:14;;;;;;;1999.90;999.90;;;-2.70;82.70;;;;;;5033776;28;20029;-71
2023/04/06 03:55:40;;;;;;;1999.90;999.90;;;-2.80;83.00;;;;;;5035687;28;20040;-72
2023/04/06 03:58:05;;;;;;;1999.90;999.90;;;-2.70;83.80;;;;;;5034287;28;20479;-71
2023/04/06 04:00:32;;;;;;;1999.90;999.90;;;-2.70;82.70;;;;;;5035470;28;20573;-71
2023/04/06 04:02:58;;;;;;;1999.90;999.90;;;-2.60;83.70;;;;;;5034355;28;20033;-71
2023/04/06 04:05:25;;;;;;;1999.90;999.90;;;-2.60;82.50;;;;;;5032629;28;20040;-71
2023/04/06 04:07:51;;;;;;;1999.90;999.90;;;-2.60;82.00;;;;;;5033338;28;20044;-71
2023/04/06 04:10:17;;;;;;;1999.90;999.90;;;-2.60;82.10;;;;;;5036274;28;20036;-71
2023/04/06 04:12:43;;;;;;;1999.90;999.90;;;-2.70;82.30;;;;;;5036966;28;20018;-71
2023/04/06 04:15:09;;;;;;;1999.90;999.90;;;-2.70;82.00;;;;;;5035072;28;20391;-71
2023/04/06 04:17:35;;;;;;;1999.90;999.90;;;-2.80;82.30;;;;;;5032775;28;20037;-71
2023/04/06 04:20:01;;;;;;;1999.90;999.90;;;-2.80;81.70;;;;;;5032334;28;20033;-70
2023/04/06 04:22:27;;;;;;;1999.90;999.90;;;-2.90;81.80;;;;;;5035009;28;20091;-71
2023/04/06 04:24:53;;;;;;;1999.90;999.90;;;-2.90;82.20;;;;;;5032619;28;20044;-71
2023/04/06 04:27:20;;;;;;;1999.90;999.90;;;-2.90;82.70;;;;;;5035831;28;20422;-72
2023/04/06 04:29:46;;;;;;;1999.90;999.90;;;-2.90;81.40;;;;;;5020120;28;20028;-72
2023/04/06 04:32:11;;;;;;;1999.90;999.90;;;-2.90;82.30;;;;;;5031307;28;20014;-72
2023/04/06 04:34:40;;;;;;;1999.90;999.90;;;-2.90;82.90;;;;;;5034017;28;20068;-72
2023/04/06 04:37:06;;;;;;;1999.90;999.90;;;-2.90;83.10;;;;;;5027485;28;20036;-74
2023/04/06 04:39:32;;;;;;;1999.90;999.90;;;-2.90;83.60;;;;;;5033569;28;20029;-75
2023/04/06 04:41:57;;;;;;;1999.90;999.90;;;-2.90;83.60;;;;;;5026761;28;20033;-73
2023/04/06 04:44:23;;;;;;;1999.90;999.90;;;-2.90;83.30;;;;;;5008740;28;20026;-73
2023/04/06 04:46:49;;;;;;;1999.90;999.90;;;-2.90;83.00;;;;;;5026800;28;20456;-74
2023/04/06 04:49:14;;;;;;;1999.90;999.90;;;-3.00;83.70;;;;;;5032421;28;20032;-73
2023/04/06 04:51:40;;;;;;;1999.90;999.90;;;-3.00;84.10;;;;;;5029477;28;20061;-75
2023/04/06 04:54:06;;;;;;;1999.90;999.90;;;-3.00;84.60;;;;;;5030480;28;20037;-74
2023/04/06 04:56:31;;;;;;;1999.90;999.90;;;-2.90;84.40;;;;;;5032966;28;20029;-76
2023/04/06 04:58:57;;;;;;;1999.90;999.90;;;-2.90;84.60;;;;;;5028484;28;20075;-75
2023/04/06 05:01:23;;;;;;;1999.90;999.90;;;-2.80;84.20;;;;;;5030839;28;20407;-70
2023/04/06 05:03:48;;;;;;;1999.90;999.90;;;-2.80;84.10;;;;;;5028715;28;20029;-70
2023/04/06 05:06:14;;;;;;;1999.90;999.90;;;-2.70;83.30;;;;;;5032496;28;20292;-71
2023/04/06 05:08:41;;;;;;;1999.90;999.90;;;-2.70;83.10;;;;;;5031437;28;20025;-70
2023/04/06 05:11:06;;;;;;;1999.90;999.90;;;-2.80;82.70;;;;;;5031759;28;20029;-70
2023/04/06 05:13:32;;;;;;;1999.90;999.90;;;-2.80;83.40;;;;;;5034561;28;20477;-70
2023/04/06 05:15:58;;;;;;;1999.90;999.90;;;-2.80;83.30;;;;;;5028675;28;20519;-70
2023/04/06 05:18:26;;;;;;;1999.90;999.90;;;-2.90;83.40;;;;;;5030222;28;20042;-73
2023/04/06 05:20:51;;;;;;;1999.90;999.90;;;-2.90;84.30;;;;;;5033339;28;20399;-71
2023/04/06 05:23:17;;;;;;;1999.90;999.90;;;-2.90;85.30;;;;;;5030272;28;20037;-71
2023/04/06 05:25:43;;;;;;;1999.90;999.90;;;-2.90;85.00;;;;;;5030679;28;20108;-71
2023/04/06 05:28:08;;;;;;;1999.90;999.90;;;-2.80;84.70;;;;;;5031149;28;20033;-71
2023/04/06 05:30:35;;;;;;;1999.90;999.90;;;-2.80;84.90;;;;;;5032277;28;20038;-71
2023/04/06 05:33:01;;;;;;;1999.90;999.90;;;-2.90;85.30;;;;;;5035299;28;20029;-71
2023/04/06 05:35:27;;;;;;;1999.90;999.90;;;-2.90;85.20;;;;;;5033775;28;20045;-71
2023/04/06 05:37:53;;;;;;;1999.90;999.90;;;-2.90;85.30;;;;;;5032698;28;20099;-71
2023/04/06 05:40:18;;;;;;;1999.90;999.90;;;-2.80;86.10;;;;;;5032074;28;20632;-71
2023/04/06 05:42:44;;;;;;;1999.90;999.90;;;-2.80;85.80;;;;;;5032265;28;20030;-72
2023/04/06 05:45:16;;;;;;;1999.90;999.90;;;-2.80;85.90;;;;;;5032895;28;20056;-75
2023/04/06 05:47:45;;;;;;;1999.90;999.90;;;-2.80;85.70;;;;;;5033246;28;20026;-75
2023/04/06 05:50:11;;;;;;;1999.90;999.90;;;-2.80;85.80;;;;;;5032259;28;20111;-75
2023/04/06 05:52:37;;;;;;;1999.90;999.90;;;-2.70;85.60;;;;;;5033909;28;20025;-74
2023/04/06 05:55:04;;;;;;;1999.90;999.90;;;-2.70;85.60;;;;;;5032690;28;20060;-75
2023/04/06 05:57:30;;;;;;;1999.90;999.90;;;-2.60;85.70;;;;;;5045593;28;20040;-75
2023/04/06 05:59:55;;;;;;;1999.90;999.90;;;-2.50;85.60;;;;;;5031828;28;20029;-75
2023/04/06 06:02:22;;;;;;;1999.90;999.90;;;-2.40;85.40;;;;;;5036910;28;20021;-75
2023/04/06 06:04:48;;;;;;;1999.90;999.90;;;-2.30;85.30;;;;;;5044739;28;20021;-75
2023/04/06 06:07:14;;;;;;;1999.90;999.90;;;-2.20;85.10;;;;;;5034216;28;20033;-75
2023/04/06 06:09:40;;;;;;;1999.90;999.90;;;-2.10;85.30;;;;;;5028665;28;20037;-75
2023/04/06 06:12:06;;;;;;;1999.90;999.90;;;-2.00;85.60;;;;;;5032059;28;20474;-75
2023/04/06 06:14:32;;;;;;;1999.90;999.90;;;-1.90;85.20;;;;;;5035363;28;20033;-75
2023/04/06 06:16:57;;;;;;;1999.90;999.90;;;-1.80;84.80;;;;;;5032015;28;20036;-75
2023/04/06 06:19:23;;;;;;;1999.90;999.90;;;-1.60;85.20;;;;;;5029357;28;20039;-76
2023/04/06 06:21:49;;;;;;;1999.90;999.90;;;-1.50;84.90;;;;;;5032018;28;20622;-75
2023/04/06 06:24:15;;;;;;;1999.90;999.90;;;-1.40;84.50;;;;;;5033715;28;20149;-76
2023/04/06 06:26:40;;;;;;;1999.90;999.90;;;-1.30;84.20;;;;;;5047046;28;20128;-75
2023/04/06 06:29:06;;;;;;;1999.90;999.90;;;-1.20;84.00;;;;;;5038878;28;20033;-75
2023/04/06 06:31:32;;;;;;;1999.90;999.90;;;-1.10;83.90;;;;;;5034311;28;20116;-75
2023/04/06 06:33:58;;;;;;;1999.90;999.90;;;-1.00;83.70;;;;;;5038415;28;20128;-75
2023/04/06 06:36:25;;;;;;;1999.90;999.90;;;-0.90;83.40;;;;;;5017048;28;20033;-75
2023/04/06 06:38:51;;;;;;;1999.90;999.90;;;-0.80;83.30;;;;;;5033606;28;20061;-75
2023/04/06 06:41:17;;;;;;;1999.90;999.90;;;-0.70;82.80;;;;;;5017991;28;20132;-75
2023/04/06 06:43:43;;;;;;;1999.90;999.90;;;-0.60;82.30;;;;;;5038844;28;20168;-75
2023/04/06 06:46:08;;;;;;;1999.90;999.90;;;-0.50;81.80;;;;;;5034303;28;20513;-76
2023/04/06 06:48:34;;;;;;;1999.90;999.90;;;-0.30;81.30;;;;;;5035226;28;20022;-75
2023/04/06 06:51:00;;;;;;;1999.90;999.90;;;-0.20;81.00;;;;;;5033284;28;20037;-75
2023/04/06 06:53:26;;;;;;;1999.90;999.90;;;0.00;81.40;;;;;;5037535;28;20025;-76
2023/04/06 06:55:51;;;;;;;1999.90;999.90;;;0.00;80.30;;;;;;5034004;28;20083;-76
2023/04/06 06:58:20;;;;;;;1999.90;999.90;;;0.20;80.20;;;;;;5033824;28;20396;-75
2023/04/06 07:00:46;;;;;;;1999.90;999.90;;;0.30;79.90;;;;;;5037832;28;20424;-76
2023/04/06 07:03:12;;;;;;;1999.90;999.90;;;0.50;78.40;;;;;;5038634;28;20025;-76
2023/04/06 07:05:38;;;;;;;1999.90;999.90;;;0.70;78.00;;;;;;5039912;28;20548;-76
2023/04/06 07:08:04;;;;;;;1999.90;999.90;;;0.80;77.00;;;;;;5033292;28;20033;-76
2023/04/06 07:10:30;;;;;;;1999.90;999.90;;;1.00;75.40;;;;;;5036527;28;20040;-76
2023/04/06 07:12:56;;;;;;;1999.90;999.90;;;1.20;75.00;;;;;;5034878;28;20095;-76
2023/04/06 07:15:21;;;;;;;1999.90;999.90;;;1.30;73.90;;;;;;5035138;28;20137;-76
2023/04/06 07:17:47;;;;;;;1999.90;999.90;;;1.50;74.70;;;;;;5036829;28;20502;-76
2023/04/06 07:20:13;;;;;;;1999.90;999.90;;;1.60;72.50;;;;;;5034933;28;20036;-76
2023/04/06 07:22:41;;;;;;;1999.90;999.90;;;1.80;71.90;;;;;;5037614;28;20044;-76
2023/04/06 07:25:07;;;;;;;1999.90;999.90;;;1.80;70.60;;;;;;5032844;28;20072;-76
2023/04/06 07:27:33;;;;;;;1999.90;999.90;;;1.90;69.20;;;;;;5035622;28;20036;-75
2023/04/06 07:29:59;;;;;;;1999.90;999.90;;;2.10;67.60;;;;;;5033296;28;20235;-75
2023/04/06 07:32:25;;;;;;;1999.90;999.90;;;2.20;68.00;;;;;;5018243;28;20517;-75
2023/04/06 07:34:51;;;;;;;1999.90;999.90;;;2.40;68.30;;;;;;5032184;28;20048;-75
2023/04/06 07:37:17;;;;;;;1999.90;999.90;;;2.50;66.20;;;;;;5034976;28;20029;-76
2023/04/06 07:39:43;;;;;;;1999.90;999.90;;;2.60;65.90;;;;;;5035733;28;20471;-76
2023/04/06 07:42:08;;;;;;;1999.90;999.90;;;2.80;65.60;;;;;;5036685;28;20033;-76
2023/04/06 07:44:34;;;;;;;1999.90;999.90;;;2.80;65.50;;;;;;5034617;28;20045;-75
2023/04/06 07:47:00;;;;;;;1999.90;999.90;;;2.90;65.50;;;;;;5033931;28;20037;-76
2023/04/06 07:49:26;;;;;;;1999.90;999.90;;;3.00;64.90;;;;;;5033830;28;20030;-77
2023/04/06 07:51:51;;;;;;;1999.90;999.90;;;3.10;64.60;;;;;;5037065;28;20025;-76
2023/04/06 07:54:17;;;;;;;1999.90;999.90;;;3.30;65.00;;;;;;5035829;28;20033;-75
2023/04/06 07:56:43;;;;;;;1999.90;999.90;;;3.40;63.20;;;;;;5036553;28;20067;-78
2023/04/06 07:59:08;;;;;;;1999.90;999.90;;;3.60;63.80;;;;;;5014997;28;20033;-76
2023/04/06 08:01:34;;;;;;;1999.90;999.90;;;3.70;63.50;;;;;;5032756;28;20041;-77
2023/04/06 08:04:02;;;;;;;1999.90;999.90;;;3.80;63.10;;;;;;5014696;28;20030;-78
2023/04/06 08:06:28;;;;;;;1999.90;999.90;;;4.00;62.90;;;;;;5025948;28;20064;-77
2023/04/06 08:08:54;;;;;;;1999.90;999.90;;;4.10;60.80;;;;;;5033769;28;20053;-76
2023/04/06 08:11:20;;;;;;;1999.90;999.90;;;4.20;60.20;;;;;;5012697;28;20045;-76
2023/04/06 08:13:45;;;;;;;1999.90;999.90;;;4.60;63.00;;;;;;5043556;28;20045;-77
2023/04/06 08:16:11;;;;;;;1999.90;999.90;;;4.40;57.70;;;;;;5035988;28;20029;-75
2023/04/06 08:18:37;;;;;;;1999.90;999.90;;;4.60;58.70;;;;;;5036263;28;20041;-77
2023/04/06 08:21:03;;;;;;;1999.90;999.90;;;4.80;60.40;;;;;;5033892;28;20029;-76
2023/04/06 08:23:29;;;;;;;1999.90;999.90;;;5.10;59.30;;;;;;5035883;28;20034;-76
2023/04/06 08:25:55;;;;;;;1999.90;999.90;;;5.30;60.90;;;;;;5033320;28;20021;-77
2023/04/06 08:28:21;;;;;;;1999.90;999.90;;;5.20;58.00;;;;;;5037128;28;20060;-77
2023/04/06 08:30:47;;;;;;;1999.90;999.90;;;5.30;57.70;;;;;;5035589;28;20143;-79
2023/04/06 08:33:13;;;;;;;1999.90;999.90;;;5.50;58.40;;;;;;5034905;28;20033;-79
2023/04/06 08:35:39;;;;;;;1999.90;999.90;;;5.80;57.70;;;;;;5037036;28;20049;-79
2023/04/06 08:38:06;;;;;;;1999.90;999.90;;;5.90;55.00;;;;;;5034435;28;20025;-78
2023/04/06 08:40:39;;;;;;;1999.90;999.90;;;6.10;56.80;;;;;;5029827;28;20029;-78
2023/04/06 08:43:09;;;;;;;1999.90;999.90;;;6.40;56.10;;;;;;5035415;28;20056;-77
2023/04/06 08:45:35;;;;;;;1999.90;999.90;;;6.30;53.10;;;;;;5024889;28;20036;-77
2023/04/06 08:48:03;;;;;;;1999.90;999.90;;;6.00;52.20;;;;;;5029745;28;20037;-79
2023/04/06 08:50:30;;;;;;;1999.90;999.90;;;6.30;52.60;;;;;;5033517;28;20487;-78
2023/04/06 08:52:57;;;;;;;1999.90;999.90;;;6.70;53.20;;;;;;5032296;28;20034;-77
2023/04/06 08:55:22;;;;;;;1999.90;999.90;;;6.60;51.20;;;;;;5037956;28;20090;-77
2023/04/06 08:57:48;;;;;;;1999.90;999.90;;;6.80;51.30;;;;;;5033207;28;20045;-79
2023/04/06 09:00:15;;;;;;;1999.90;999.90;;;6.80;50.70;;;;;;5032576;28;20129;-81
2023/04/06 09:02:45;;;;;;;1999.90;999.90;;;7.20;49.90;;;;;;5034430;28;20060;-79
2023/04/06 09:05:11;;;;;;;1999.90;999.90;;;6.90;48.30;;;;;;5033805;28;20081;-80
2023/04/06 09:07:37;;;;;;;1999.90;999.90;;;7.20;51.60;;;;;;5034472;28;20033;-77
2023/04/06 09:10:06;;;;;;;1999.90;999.90;;;7.30;49.40;;;;;;5033059;28;20404;-80
2023/04/06 09:12:33;;;;;;;1999.90;999.90;;;7.60;51.30;;;;;;5036304;28;20087;-77
2023/04/06 09:14:59;;;;;;;1999.90;999.90;;;7.90;51.20;;;;;;5032334;28;20491;-81
2023/04/06 09:17:32;;;;;;;1999.90;999.90;;;7.90;46.40;;;;;;5034611;28;20059;-80
2023/04/06 09:20:02;;;;;;;1999.90;999.90;;;8.20;50.10;;;;;;5029769;28;20059;-79
2023/04/06 09:22:44;;;;;;;1999.90;999.90;;;8.40;49.20;;;;;;5029650;28;20029;-81
2023/04/06 09:25:19;;;;;;;1999.90;999.90;;;8.50;45.80;;;;;;5032820;28;20041;-81
2023/04/06 09:27:45;;;;;;;1999.90;999.90;;;8.40;44.90;;;;;;5029337;28;20026;-83
2023/04/06 09:30:13;;;;;;;1999.90;999.90;;;8.60;46.80;;;;;;5035245;28;20032;-82
2023/04/06 09:32:46;;;;;;;1999.90;999.90;;;8.70;45.80;;;;;;5034093;28;20041;-80
2023/04/06 09:35:12;;;;;;;1999.90;999.90;;;8.90;44.70;;;;;;5030570;28;20518;-81
2023/04/06 09:37:38;;;;;;;1999.90;999.90;;;9.20;46.40;;;;;;5030439;28;20092;-84
2023/04/06 09:40:07;;;;;;;1999.90;999.90;;;9.60;45.50;;;;;;5037017;28;20037;-82
2023/04/06 09:42:34;;;;;;;1999.90;999.90;;;9.20;41.20;;;;;;5030852;28;20467;-82
2023/04/06 09:45:01;;;;;;;1999.90;999.90;;;9.80;42.30;;;;;;5035419;28;20017;-82
2023/04/06 09:47:26;;;;;;;1999.90;999.90;;;10.30;43.20;;;;;;5033468;28;20036;-81
2023/04/06 09:50:02;;;;;;;1999.90;999.90;;;10.20;39.90;;;;;;5036055;28;20032;-80
2023/04/06 09:52:40;;;;;;;1999.90;999.90;;;10.30;38.40;;;;;;5033654;28;20040;-79
2023/04/06 09:55:07;;;;;;;1999.90;999.90;;;10.50;39.30;;;;;;5032704;28;20060;-79
2023/04/06 09:57:49;;;;;;;1999.90;999.90;;;10.20;37.70;;;;;;5035105;28;20034;-81
2023/04/06 10:00:19;;;;;;;1999.90;999.90;;;11.30;39.70;;;;;;5034406;28;20025;-83
2023/04/06 10:02:50;;;;;;;1999.90;999.90;;;11.30;39.40;;;;;;5030669;28;20029;-82
2023/04/06 10:05:24;;;;;;;1999.90;999.90;;;10.90;33.50;;;;;;5038606;28;20071;-82
2023/04/06 10:07:53;;;;;;;1999.90;999.90;;;11.10;35.20;;;;;;5030982;28;20052;-81
2023/04/06 10:10:19;;;;;;;1999.90;999.90;;;11.00;35.00;;;;;;5035944;28;20026;-82
2023/04/06 10:12:47;;;;;;;1999.90;999.90;;;10.80;34.60;;;;;;5031747;28;20117;-84
2023/04/06 10:15:14;;;;;;;1999.90;999.90;;;11.30;38.20;;;;;;5037397;28;20387;-83
2023/04/06 10:17:44;;;;;;;1999.90;999.90;;;11.50;36.40;;;;;;5013400;28;20541;-80
2023/04/06 10:20:21;;;;;;;1999.90;999.90;;;11.00;34.10;;;;;;5016811;28;20045;-78
2023/04/06 10:22:59;;;;;;;1999.90;999.90;;;11.00;36.20;;;;;;5031633;28;20084;-81
2023/04/06 10:25:29;;;;;;;1999.90;999.90;;;10.80;37.50;;;;;;5037387;28;20029;-80
2023/04/06 10:28:08;;;;;;;1999.90;999.90;;;11.30;39.10;;;;;;5048628;28;20032;-85
2023/04/06 10:30:41;;;;;;;1999.90;999.90;;;11.20;37.50;;;;;;5033891;28;20040;-84
2023/04/06 10:33:14;;;;;;;1999.90;999.90;;;11.30;34.30;;;;;;5032597;28;20061;-80
2023/04/06 10:35:40;;;;;;;1999.90;999.90;;;11.50;35.30;;;;;;5037401;28;20423;-84
2023/04/06 10:38:06;;;;;;;1999.90;999.90;;;12.10;37.20;;;;;;5031720;28;20032;-82
2023/04/06 10:40:32;;;;;;;1999.90;999.90;;;12.80;36.60;;;;;;5036179;28;20025;-83
2023/04/06 10:43:07;;;;;;;1999.90;999.90;;;12.20;36.10;;;;;;5031737;28;21538;-78
2023/04/06 10:45:34;;;;;;;1999.90;999.90;;;12.20;33.80;;;;;;5031341;28;20029;-81
2023/04/06 10:48:00;;;;;;;1999.90;999.90;;;12.90;36.20;;;;;;5031967;28;20032;-78
2023/04/06 10:50:29;;;;;;;1999.90;999.90;;;12.20;32.30;;;;;;5037362;28;20029;-78
2023/04/06 10:53:00;;;;;;;1999.90;999.90;;;12.30;33.00;;;;;;5030799;28;20037;-82
2023/04/06 10:55:27;;;;;;;;;;;12.20;32.10;;;;;;5034658;28;20033;-79
2023/04/06 10:57:53;;;;;;;1999.90;999.90;;;13.00;31.70;;;;;;5032591;28;20042;-78
2023/04/06 11:00:20;;;;;;;1999.90;999.90;;;13.90;30.70;;;;;;5033344;28;20129;-80
2023/04/06 11:02:46;;;;;;;1999.90;999.90;;;14.80;29.70;;;;;;5032538;28;20044;-81
2023/04/06 11:05:13;;;;;;;1999.90;999.90;;;14.50;30.40;;;;;;5032059;28;20029;-80
2023/04/06 11:07:40;;;;;;;1999.90;999.90;;;14.40;28.00;;;;;;5031218;28;20022;-79
2023/04/06 11:10:07;;;;;;;1999.90;999.90;;;13.80;28.00;;;;;;5034509;28;20028;-78
2023/04/06 11:12:34;;;;;;;1999.90;999.90;;;14.30;30.60;;;;;;5036705;28;20060;-78
2023/04/06 11:15:04;;;;;;;1999.90;999.90;;;15.00;30.50;;;;;;5037021;28;20594;-79
2023/04/06 11:17:35;;;;;;;1999.90;999.90;;;14.60;28.20;;;;;;5029962;28;20443;-81
2023/04/06 11:20:02;;;;;;;1999.90;999.90;;;14.90;28.20;;;;;;5035175;28;20033;-80
2023/04/06 11:22:28;;;;;;;1999.90;999.90;;;15.40;29.50;;;;;;5032538;28;20022;-78
2023/04/06 11:25:06;;;;;;;1999.90;999.90;;;15.20;28.90;;;;;;5039773;28;20033;-79
2023/04/06 11:27:33;;;;;;;1999.90;999.90;;;14.60;27.10;;;;;;5031585;28;20557;-80
2023/04/06 11:30:06;;;;;;;1999.90;999.90;;;15.50;29.60;;;;;;5035103;28;20034;-79
2023/04/06 11:32:43;;;;;;;1999.90;999.90;;;15.80;28.50;;;;;;5028888;28;20033;-79
2023/04/06 11:35:21;;;;;;;1999.90;999.90;;;15.70;28.60;;;;;;5037916;28;20047;-79
2023/04/06 11:37:50;;;;;;;1999.90;999.90;;;16.60;28.10;;;;;;5033745;28;20056;-78
2023/04/06 11:40:21;;;;;;;1999.90;999.90;;;16.10;27.90;;;;;;5039379;28;20041;-79
2023/04/06 11:42:53;;;;;;;1999.90;999.90;;;16.20;27.70;;;;;;5035493;28;20029;-76
2023/04/06 11:45:19;;;;;;;1999.90;999.90;;;17.20;25.20;;;;;;5052667;28;20435;-77
2023/04/06 11:47:45;;;;;;;1999.90;999.90;;;17.90;26.40;;;;;;5048765;28;20056;-77
2023/04/06 11:50:13;;;;;;;1999.90;999.90;;;17.90;25.10;;;;;;5035731;28;20034;-76
2023/04/06 11:52:41;;;;;;;1999.90;999.90;;;17.50;24.60;;;;;;5035312;28;20033;-80
2023/04/06 11:55:17;;;;;;;1999.90;999.90;;;17.40;23.40;;;;;;5035316;28;20188;-78
2023/04/06 11:57:44;;;;;;;1999.90;999.90;;;18.00;27.20;;;;;;5044349;28;20107;-78
2023/04/06 12:00:11;;;;;;;1999.90;999.90;;;17.00;24.40;;;;;;5026419;28;20617;-78